Time;durP1;ratioP1;P1;durP2;ratioP2;P2;SDS_P1;SDS_P2;PMS_P1;PMS_P2;Temp;Humidity;BMP_temperature;BMP_pressure;BME280_temperature;BME280_humidity;BME280_pressure;Samples;Min_cycle;Max_cycle;Signal;HPM_P1;HPM_P2
2022/07/13 00:01:46;;;;;;;2.13;1.45;;;16.40;99.90;;;;;;4982324;28;20039;-72
2022/07/13 00:04:18;;;;;;;3.83;1.60;;;16.40;99.90;;;;;;5005362;28;20518;-71
2022/07/13 00:06:50;;;;;;;1.98;1.40;;;16.40;99.90;;;;;;4986023;28;20046;-72
2022/07/13 00:09:22;;;;;;;1.10;1.00;;;16.40;99.90;;;;;;4986677;28;20056;-71
2022/07/13 00:11:53;;;;;;;2.03;1.27;;;16.40;99.90;;;;;;4981212;28;20558;-71
2022/07/13 00:14:25;;;;;;;2.67;1.30;;;16.50;99.90;;;;;;4980911;28;20050;-71
2022/07/13 00:16:57;;;;;;;2.05;0.95;;;16.40;99.90;;;;;;4989964;28;20051;-71
2022/07/13 00:19:28;;;;;;;3.78;1.25;;;16.40;99.90;;;;;;4988749;28;20705;-71
2022/07/13 00:22:00;;;;;;;1.63;1.00;;;16.40;99.90;;;;;;5004437;28;20035;-71
2022/07/13 00:24:32;;;;;;;1.80;1.30;;;16.40;99.90;;;;;;4984855;28;20165;-71
2022/07/13 00:27:04;;;;;;;1.33;1.20;;;16.40;99.90;;;;;;4983115;28;20031;-71
2022/07/13 00:29:35;;;;;;;2.28;1.60;;;16.30;99.90;;;;;;4987735;28;20129;-71
2022/07/13 00:32:07;;;;;;;5.07;1.52;;;16.10;99.90;;;;;;4989992;28;20144;-71
2022/07/13 00:34:39;;;;;;;3.65;1.70;;;16.10;99.90;;;;;;4995063;28;20038;-71
2022/07/13 00:37:11;;;;;;;1.80;1.60;;;16.00;99.90;;;;;;4985843;28;20043;-71
2022/07/13 00:39:43;;;;;;;4.10;1.80;;;15.90;99.90;;;;;;4978017;28;20046;-71
2022/07/13 00:42:14;;;;;;;4.00;1.90;;;15.90;99.90;;;;;;4981684;28;20572;-72
2022/07/13 00:44:46;;;;;;;3.25;1.50;;;15.90;99.90;;;;;;4998791;28;20483;-70
2022/07/13 00:47:18;;;;;;;3.90;1.73;;;15.80;99.90;;;;;;5001779;28;20499;-71
2022/07/13 00:49:50;;;;;;;3.22;1.83;;;15.80;99.90;;;;;;5005998;28;20046;-71
2022/07/13 00:52:22;;;;;;;3.20;1.50;;;15.70;99.90;;;;;;4988183;28;20054;-71
2022/07/13 00:54:55;;;;;;;2.40;1.30;;;15.70;99.90;;;;;;4993291;28;20034;-71
2022/07/13 00:57:28;;;;;;;3.58;1.50;;;15.60;99.90;;;;;;4989144;28;20406;-70
2022/07/13 01:00:01;;;;;;;2.85;1.40;;;15.60;99.90;;;;;;5006840;28;20489;-71
2022/07/13 01:02:32;;;;;;;3.42;1.25;;;15.60;99.90;;;;;;4996840;28;20049;-71
2022/07/13 01:05:05;;;;;;;1.67;1.30;;;15.60;99.90;;;;;;5002471;28;20042;-71
2022/07/13 01:07:37;;;;;;;1.77;1.10;;;15.70;99.90;;;;;;4999903;28;20046;-72
2022/07/13 01:10:11;;;;;;;2.40;1.10;;;15.60;99.90;;;;;;5000567;28;20050;-71
2022/07/13 01:12:42;;;;;;;1.50;1.40;;;15.60;99.90;;;;;;4984616;28;20693;-71
2022/07/13 01:15:15;;;;;;;1.48;1.10;;;15.60;99.90;;;;;;5001333;28;20485;-71
2022/07/13 01:17:48;;;;;;;3.35;1.00;;;15.60;99.90;;;;;;4986458;28;20077;-71
2022/07/13 01:20:20;;;;;;;1.20;1.10;;;15.50;99.90;;;;;;4996297;28;20051;-71
2022/07/13 01:22:53;;;;;;;1.80;1.63;;;15.50;99.90;;;;;;4982015;28;20047;-71
2022/07/13 01:25:25;;;;;;;1.30;1.10;;;15.60;99.90;;;;;;4983119;28;20042;-72
2022/07/13 01:27:56;;;;;;;1.95;1.20;;;15.50;99.90;;;;;;4999515;28;20046;-71
2022/07/13 01:30:28;;;;;;;1.60;1.20;;;15.50;99.90;;;;;;4977183;28;20054;-71
2022/07/13 01:33:00;;;;;;;1.50;1.10;;;15.40;99.90;;;;;;4986835;28;20056;-72
2022/07/13 01:35:32;;;;;;;4.88;1.30;;;15.30;99.90;;;;;;4974192;28;20053;-70
2022/07/13 01:38:04;;;;;;;1.55;1.05;;;15.30;99.90;;;;;;4987000;28;20066;-71
2022/07/13 01:40:36;;;;;;;1.65;1.20;;;15.20;99.90;;;;;;4981716;28;20076;-71
2022/07/13 01:43:08;;;;;;;1.50;0.98;;;15.20;99.90;;;;;;4981120;28;20054;-71
2022/07/13 01:45:39;;;;;;;4.13;1.13;;;15.20;99.90;;;;;;4983460;28;20043;-71
2022/07/13 01:48:11;;;;;;;3.47;1.20;;;15.10;99.90;;;;;;4978725;28;20053;-71
2022/07/13 01:50:43;;;;;;;1.35;1.17;;;15.10;99.90;;;;;;4986716;28;20038;-71
2022/07/13 01:53:15;;;;;;;1.83;1.50;;;15.10;99.90;;;;;;4987281;28;20425;-71
2022/07/13 01:55:46;;;;;;;3.22;1.10;;;15.00;99.90;;;;;;4988792;28;20056;-72
2022/07/13 01:58:18;;;;;;;2.50;1.08;;;15.00;99.90;;;;;;4986530;28;20046;-72
2022/07/13 02:00:50;;;;;;;2.25;1.10;;;14.90;99.90;;;;;;4982213;28;20572;-72
2022/07/13 02:03:23;;;;;;;0.98;0.85;;;14.80;99.90;;;;;;4986605;28;20050;-71
2022/07/13 02:05:55;;;;;;;1.10;1.00;;;14.80;99.90;;;;;;5005315;28;20034;-71
2022/07/13 02:08:28;;;;;;;1.25;1.00;;;14.80;99.90;;;;;;4991167;28;20046;-72
2022/07/13 02:11:00;;;;;;;3.20;1.23;;;14.70;99.90;;;;;;4986770;28;20060;-71
2022/07/13 02:13:32;;;;;;;1.13;1.02;;;14.60;99.90;;;;;;4985228;28;20527;-72
2022/07/13 02:16:04;;;;;;;1.70;1.00;;;14.50;99.90;;;;;;4975827;28;20057;-71
2022/07/13 02:18:36;;;;;;;1.08;0.98;;;14.50;99.90;;;;;;4990482;28;20057;-72
2022/07/13 02:21:08;;;;;;;1.65;1.15;;;14.50;99.90;;;;;;4999266;28;20058;-71
2022/07/13 02:23:41;;;;;;;2.33;1.25;;;14.50;99.90;;;;;;4982447;28;20046;-71
2022/07/13 02:26:12;;;;;;;1.02;0.90;;;14.60;99.90;;;;;;4999511;28;20054;-71
2022/07/13 02:28:44;;;;;;;1.17;1.08;;;14.60;99.90;;;;;;4989912;28;20046;-71
2022/07/13 02:31:19;;;;;;;1.30;1.20;;;14.60;99.90;;;;;;5008840;28;20137;-71
2022/07/13 02:33:50;;;;;;;2.03;1.45;;;14.70;99.90;;;;;;4991182;28;20070;-71
2022/07/13 02:36:22;;;;;;;2.88;1.60;;;14.70;99.90;;;;;;4977450;28;20046;-71
2022/07/13 02:38:54;;;;;;;3.63;1.70;;;14.70;99.90;;;;;;4990571;28;20068;-71
2022/07/13 02:41:26;;;;;;;3.75;1.65;;;14.60;99.90;;;;;;5008272;28;20042;-71
2022/07/13 02:43:58;;;;;;;2.08;1.63;;;14.60;99.90;;;;;;5013100;23;20047;-70
2022/07/13 02:46:30;;;;;;;2.00;1.57;;;14.60;99.90;;;;;;4986515;28;20042;-70
2022/07/13 02:49:02;;;;;;;3.60;1.95;;;14.50;99.90;;;;;;4981506;28;20098;-71
2022/07/13 02:51:35;;;;;;;5.75;2.47;;;14.50;99.90;;;;;;4976615;28;20054;-70
2022/07/13 02:54:09;;;;;;;7.60;2.58;;;14.50;99.90;;;;;;4974047;28;20038;-70
2022/07/13 02:56:41;;;;;;;5.07;2.92;;;14.40;99.90;;;;;;4968970;28;20042;-70
2022/07/13 02:59:12;;;;;;;8.27;2.45;;;14.40;99.90;;;;;;4977108;28;20038;-70
2022/07/13 03:01:45;;;;;;;4.85;2.20;;;14.30;99.90;;;;;;4994216;28;20038;-70
2022/07/13 03:04:16;;;;;;;5.78;2.40;;;14.20;99.90;;;;;;4985039;28;20081;-70
2022/07/13 03:06:48;;;;;;;4.28;2.25;;;14.20;99.90;;;;;;4975633;28;20134;-70
2022/07/13 03:09:20;;;;;;;2.30;2.10;;;14.10;99.90;;;;;;4988584;28;20461;-71
2022/07/13 03:11:52;;;;;;;2.30;2.10;;;14.10;99.90;;;;;;4985753;28;20050;-70
2022/07/13 03:14:24;;;;;;;2.95;1.92;;;14.00;99.90;;;;;;4959317;28;20185;-70
2022/07/13 03:16:56;;;;;;;2.63;1.98;;;14.00;99.90;;;;;;4987440;28;20046;-70
2022/07/13 03:19:28;;;;;;;1.90;1.70;;;13.90;99.90;;;;;;4993822;28;20053;-71
2022/07/13 03:22:03;;;;;;;2.22;2.03;;;13.80;99.90;;;;;;4952895;28;20057;-70
2022/07/13 03:24:31;;;;;;;1.83;1.70;;;13.80;99.90;;;;;;4971143;28;20065;-71
2022/07/13 03:27:04;;;;;;;1.80;1.52;;;13.70;99.90;;;;;;4975816;28;20050;-70
2022/07/13 03:29:36;;;;;;;1.90;1.55;;;14.00;99.90;;;;;;4949771;28;20495;-71
2022/07/13 03:32:09;;;;;;;2.33;1.67;;;14.20;99.90;;;;;;4961574;28;20639;-71
2022/07/13 03:34:40;;;;;;;3.88;1.65;;;14.00;99.90;;;;;;4981575;28;20034;-70
2022/07/13 03:37:15;;;;;;;4.45;1.58;;;13.90;99.90;;;;;;4973524;28;20113;-70
2022/07/13 03:39:49;;;;;;;2.40;2.20;;;13.80;99.90;;;;;;4980247;28;20043;-71
2022/07/13 03:42:22;;;;;;;2.67;1.73;;;13.70;99.90;;;;;;4987364;28;20390;-70
2022/07/13 03:44:54;;;;;;;2.20;1.80;;;13.60;99.90;;;;;;4982797;28;20121;-70
2022/07/13 03:47:26;;;;;;;3.03;1.70;;;13.40;99.90;;;;;;4976325;28;20147;-70
2022/07/13 03:49:57;;;;;;;2.38;1.50;;;13.30;99.90;;;;;;4979907;28;20502;-71
2022/07/13 03:52:30;;;;;;;2.55;1.20;;;13.30;99.90;;;;;;4977754;28;20042;-70
2022/07/13 03:55:03;;;;;;;1.40;1.17;;;13.30;99.90;;;;;;4974621;28;20081;-70
2022/07/13 03:57:35;;;;;;;3.33;1.40;;;13.40;99.90;;;;;;4976309;28;20459;-70
2022/07/13 04:00:08;;;;;;;3.60;1.63;;;13.40;99.90;;;;;;4992834;28;20305;-70
2022/07/13 04:02:47;;;;;;;14.10;4.53;;;13.50;99.90;;;;;;5007781;28;20034;-71
2022/07/13 04:05:19;;;;;;;8.35;3.70;;;13.60;99.90;;;;;;4984042;28;20058;-70
2022/07/13 04:07:52;;;;;;;9.48;2.65;;;13.70;99.90;;;;;;4985790;28;20073;-72
2022/07/13 04:10:24;;;;;;;4.25;2.25;;;13.80;99.90;;;;;;4973369;28;21328;-70
2022/07/13 04:12:58;;;;;;;5.47;2.00;;;13.80;99.90;;;;;;4978480;28;20042;-70
2022/07/13 04:15:30;;;;;;;4.75;1.80;;;13.80;99.90;;;;;;4986233;28;20196;-70
2022/07/13 04:17:56;;;;;;;6.05;2.00;;;13.90;99.90;;;;;;4969699;28;20465;-71
2022/07/13 04:20:28;;;;;;;6.88;3.38;;;13.90;99.90;;;;;;4975824;28;20582;-71
2022/07/13 04:22:56;;;;;;;7.30;4.15;;;14.00;99.90;;;;;;4984324;28;20577;-71
2022/07/13 04:25:22;;;;;;;9.52;3.60;;;14.00;99.90;;;;;;4975584;28;20141;-70
2022/07/13 04:27:56;;;;;;;;;;;14.10;99.90;;;;;;4974510;28;20438;-71
2022/07/13 04:30:22;;;;;;;8.18;2.28;;;14.10;99.90;;;;;;4988029;28;20718;-71
2022/07/13 04:32:56;;;;;;;5.57;2.20;;;14.10;99.90;;;;;;4985880;28;20085;-71
2022/07/13 04:35:28;;;;;;;7.85;3.92;;;14.10;99.90;;;;;;4971591;28;20101;-71
2022/07/13 04:38:00;;;;;;;11.90;4.90;;;14.10;99.90;;;;;;4968695;28;20047;-71
2022/07/13 04:40:32;;;;;;;7.45;4.85;;;14.00;99.90;;;;;;4989654;28;20066;-71
2022/07/13 04:43:03;;;;;;;11.13;4.80;;;13.90;99.90;;;;;;4973287;28;20042;-71
2022/07/13 04:45:35;;;;;;;7.32;3.28;;;13.80;99.90;;;;;;4971675;28;20034;-71
2022/07/13 04:48:07;;;;;;;4.78;3.58;;;13.80;99.90;;;;;;4971551;28;20035;-70
2022/07/13 04:50:39;;;;;;;5.28;3.30;;;13.70;99.90;;;;;;4986744;28;20092;-71
2022/07/13 04:53:11;;;;;;;5.15;3.25;;;13.70;99.90;;;;;;4980770;28;20043;-70
2022/07/13 04:55:43;;;;;;;5.65;3.08;;;13.70;99.90;;;;;;4972363;28;20046;-70
2022/07/13 04:58:15;;;;;;;3.42;2.80;;;13.70;99.90;;;;;;4975373;28;20682;-70
2022/07/13 05:00:47;;;;;;;3.72;3.22;;;13.80;99.90;;;;;;4980510;28;20129;-71
2022/07/13 05:03:20;;;;;;;3.30;3.00;;;13.80;99.90;;;;;;4973211;28;20127;-70
2022/07/13 05:05:52;;;;;;;4.68;3.53;;;13.90;99.90;;;;;;4989962;28;20041;-70
2022/07/13 05:08:19;;;;;;;8.15;3.78;;;13.90;99.90;;;;;;4972834;28;20038;-70
2022/07/13 05:10:53;;;;;;;12.52;4.32;;;14.00;99.90;;;;;;4987768;28;20046;-70
2022/07/13 05:13:24;;;;;;;7.57;3.40;;;14.10;99.90;;;;;;4974040;28;20054;-70
2022/07/13 05:15:58;;;;;;;7.72;3.40;;;14.10;99.90;;;;;;4970965;28;20078;-70
2022/07/13 05:18:26;;;;;;;5.15;3.05;;;14.20;99.90;;;;;;4987954;28;20054;-70
2022/07/13 05:21:02;;;;;;;5.55;3.08;;;14.20;99.90;;;;;;4990698;28;20054;-70
2022/07/13 05:23:35;;;;;;;8.50;3.85;;;14.30;99.90;;;;;;4973529;28;20181;-70
2022/07/13 05:26:07;;;;;;;6.13;3.45;;;14.40;99.90;;;;;;4973240;28;20050;-70
2022/07/13 05:28:41;;;;;;;7.63;3.20;;;14.50;99.90;;;;;;4979196;28;20521;-70
2022/07/13 05:31:15;;;;;;;6.47;3.63;;;14.50;99.90;;;;;;4974599;28;20495;-70
2022/07/13 05:33:47;;;;;;;5.93;3.78;;;14.60;99.90;;;;;;4970584;28;20082;-70
2022/07/13 05:36:25;;;;;;;6.30;3.53;;;14.70;99.90;;;;;;4964656;28;20058;-70
2022/07/13 05:38:57;;;;;;;4.28;3.17;;;14.80;99.90;;;;;;4973794;28;20046;-70
2022/07/13 05:41:29;;;;;;;5.47;3.20;;;14.80;99.90;;;;;;4984765;28;20068;-70
2022/07/13 05:44:00;;;;;;;6.30;3.58;;;14.90;99.90;;;;;;4972719;28;20035;-70
2022/07/13 05:46:27;;;;;;;7.45;4.13;;;14.90;99.90;;;;;;4984194;28;20588;-70
2022/07/13 05:48:59;;;;;;;5.45;3.70;;;15.00;99.90;;;;;;4974323;28;20046;-70
2022/07/13 05:51:26;;;;;;;6.85;4.15;;;15.10;99.90;;;;;;4986076;28;20857;-70
2022/07/13 05:53:58;;;;;;;4.22;3.70;;;15.10;99.90;;;;;;4972919;28;20070;-70
2022/07/13 05:56:30;;;;;;;5.30;4.00;;;15.20;99.90;;;;;;4970290;28;20448;-71
2022/07/13 05:59:02;;;;;;;8.38;4.03;;;15.30;99.90;;;;;;4989826;28;20054;-70
2022/07/13 06:01:29;;;;;;;4.40;3.17;;;15.30;99.90;;;;;;4991281;28;20077;-70
2022/07/13 06:04:01;;;;;;;4.38;3.35;;;15.50;99.90;;;;;;4980789;28;20038;-71
2022/07/13 06:06:32;;;;;;;6.95;3.70;;;15.50;99.90;;;;;;4991265;28;20049;-71
2022/07/13 06:09:04;;;;;;;7.97;3.50;;;15.60;99.90;;;;;;4988388;28;20039;-71
2022/07/13 06:11:36;;;;;;;4.50;2.47;;;15.60;99.90;;;;;;4987170;28;20050;-71
2022/07/13 06:14:07;;;;;;;5.50;3.13;;;15.70;99.90;;;;;;4974602;28;20050;-72
2022/07/13 06:16:39;;;;;;;5.32;3.03;;;15.90;99.90;;;;;;4969450;28;20059;-71
2022/07/13 06:19:11;;;;;;;3.40;2.83;;;16.00;99.90;;;;;;4988822;28;20042;-71
2022/07/13 06:21:42;;;;;;;5.22;3.40;;;16.10;99.90;;;;;;4989463;28;20038;-71
2022/07/13 06:24:14;;;;;;;3.60;3.25;;;16.10;99.90;;;;;;4987063;28;20030;-71
2022/07/13 06:26:46;;;;;;;4.25;2.92;;;16.20;99.90;;;;;;4971860;28;20088;-71
2022/07/13 06:29:18;;;;;;;6.80;3.05;;;16.20;99.90;;;;;;4990533;28;20046;-71
2022/07/13 06:31:49;;;;;;;5.70;3.17;;;16.30;99.90;;;;;;4969273;28;20422;-71
2022/07/13 06:34:21;;;;;;;3.10;2.67;;;16.30;99.90;;;;;;4956035;28;20057;-73
2022/07/13 06:36:53;;;;;;;3.05;2.75;;;16.50;99.90;;;;;;4977929;28;20042;-72
2022/07/13 06:39:24;;;;;;;5.25;2.83;;;16.60;99.90;;;;;;4990678;28;20064;-72
2022/07/13 06:41:56;;;;;;;2.92;2.65;;;16.70;99.90;;;;;;4965320;28;20053;-72
2022/07/13 06:44:28;;;;;;;3.03;2.72;;;16.80;99.90;;;;;;4988135;28;20048;-72
2022/07/13 06:47:00;;;;;;;4.53;2.47;;;16.90;99.90;;;;;;4973123;28;20041;-72
2022/07/13 06:49:32;;;;;;;4.22;2.78;;;17.00;99.90;;;;;;4986440;28;20043;-72
2022/07/13 06:52:04;;;;;;;3.83;2.88;;;17.00;99.90;;;;;;4991077;28;20052;-72
2022/07/13 06:54:35;;;;;;;4.15;2.72;;;17.10;99.90;;;;;;4969806;28;20043;-72
2022/07/13 06:57:07;;;;;;;3.47;2.50;;;17.10;99.90;;;;;;4970293;28;20097;-72
2022/07/13 06:59:39;;;;;;;2.83;2.55;;;17.30;99.90;;;;;;4973703;28;20064;-72
2022/07/13 07:02:11;;;;;;;4.53;2.47;;;17.40;99.90;;;;;;4990216;28;20051;-72
2022/07/13 07:04:42;;;;;;;3.55;2.50;;;17.50;99.90;;;;;;4988352;28;20038;-72
2022/07/13 07:07:14;;;;;;;6.38;4.57;;;17.60;99.90;;;;;;4969638;28;20499;-72
2022/07/13 07:09:46;;;;;;;3.78;2.88;;;17.70;99.90;;;;;;4981350;28;20043;-71
2022/07/13 07:12:18;;;;;;;3.83;2.20;;;17.90;99.90;;;;;;4985963;28;20050;-72
2022/07/13 07:14:49;;;;;;;4.25;2.03;;;18.00;99.90;;;;;;4992865;28;20060;-72
2022/07/13 07:17:21;;;;;;;2.28;2.08;;;18.20;99.90;;;;;;4994337;28;20042;-72
2022/07/13 07:20:03;;;;;;;2.38;2.17;;;18.30;99.90;;;;;;4994439;28;20047;-72
2022/07/13 07:22:30;;;;;;;2.45;2.15;;;18.40;99.90;;;;;;4975100;28;20430;-73
2022/07/13 07:25:02;;;;;;;2.70;2.40;;;18.50;99.90;;;;;;4981151;28;20033;-72
2022/07/13 07:27:34;;;;;;;3.20;2.30;;;18.60;99.90;;;;;;4993549;28;20042;-72
2022/07/13 07:30:06;;;;;;;2.70;2.35;;;18.70;99.90;;;;;;4972849;28;20047;-72
2022/07/13 07:32:39;;;;;;;3.10;2.10;;;18.90;99.90;;;;;;5003666;28;20106;-72
2022/07/13 07:35:10;;;;;;;4.97;1.85;;;19.00;99.90;;;;;;4997868;28;20041;-72
2022/07/13 07:37:43;;;;;;;3.05;2.20;;;19.20;99.90;;;;;;5001043;28;20481;-72
2022/07/13 07:40:15;;;;;;;3.45;2.03;;;19.30;99.90;;;;;;4991941;28;20702;-72
2022/07/13 07:42:47;;;;;;;2.38;1.70;;;19.50;99.90;;;;;;4976484;28;20038;-72
2022/07/13 07:45:18;;;;;;;2.20;1.65;;;19.60;99.90;;;;;;4975162;28;20042;-72
2022/07/13 07:47:50;;;;;;;2.58;1.60;;;19.80;99.90;;;;;;4992889;28;20034;-72
2022/07/13 07:50:22;;;;;;;3.28;1.70;;;19.90;99.90;;;;;;4976584;28;20065;-72
2022/07/13 07:52:53;;;;;;;3.17;1.83;;;20.10;99.90;;;;;;4975880;28;20507;-72
2022/07/13 07:55:25;;;;;;;2.22;1.65;;;20.30;99.90;;;;;;4974183;28;20502;-72
2022/07/13 07:57:58;;;;;;;2.65;1.55;;;20.50;99.90;;;;;;4976132;28;20041;-72
2022/07/13 08:00:30;;;;;;;2.03;1.60;;;20.60;99.90;;;;;;4987380;28;20049;-72
2022/07/13 08:03:03;;;;;;;2.80;1.35;;;20.70;99.90;;;;;;4988286;28;20043;-72
2022/07/13 08:05:36;;;;;;;3.35;1.48;;;20.80;99.90;;;;;;4990814;28;20499;-72
2022/07/13 08:08:07;;;;;;;2.90;1.60;;;21.00;99.90;;;;;;4986048;28;20085;-72
2022/07/13 08:10:34;;;;;;;1.58;1.48;;;21.20;99.90;;;;;;4987032;28;20042;-72
2022/07/13 08:13:06;;;;;;;2.60;1.80;;;21.40;99.90;;;;;;4989311;28;20049;-72
2022/07/13 08:15:38;;;;;;;4.47;1.55;;;21.60;99.90;;;;;;4978212;28;20129;-72
2022/07/13 08:18:09;;;;;;;2.85;1.90;;;21.80;99.90;;;;;;4973383;28;20562;-72
2022/07/13 08:20:41;;;;;;;2.28;1.40;;;22.00;99.90;;;;;;4971290;28;20042;-72
2022/07/13 08:26:03;;;;;;;1.73;1.40;;;22.40;99.90;;;;;;4988311;28;20049;-72
2022/07/13 08:28:35;;;;;;;1.85;1.42;;;22.60;99.90;;;;;;4990162;28;20045;-72
2022/07/13 08:31:07;;;;;;;1.20;1.10;;;22.80;99.90;;;;;;4971037;28;20054;-72
2022/07/13 08:39:20;;;;;;;1.30;1.10;;;23.40;99.90;;;;;;4990158;28;20053;-72
2022/07/13 08:41:52;;;;;;;1.85;1.02;;;23.50;99.50;;;;;;4974522;28;20100;-72
2022/07/13 08:44:24;;;;;;;1.92;1.02;;;23.70;99.60;;;;;;4971246;28;20058;-72
2022/07/13 08:46:58;;;;;;;1.92;1.17;;;23.80;98.70;;;;;;4968945;28;20049;-72
2022/07/13 08:49:30;;;;;;;2.20;1.00;;;24.00;98.00;;;;;;4973853;28;20042;-72
2022/07/13 08:52:02;;;;;;;1.55;0.98;;;24.20;97.30;;;;;;4990193;28;20046;-72
2022/07/13 08:54:33;;;;;;;3.50;1.02;;;24.30;95.50;;;;;;4968577;28;20038;-72
2022/07/13 08:57:05;;;;;;;0.93;0.80;;;24.50;94.00;;;;;;4967726;28;20121;-72
2022/07/13 08:59:37;;;;;;;0.98;0.80;;;24.60;91.00;;;;;;4988988;28;20046;-72
2022/07/13 09:02:09;;;;;;;0.63;0.60;;;24.60;89.90;;;;;;4972388;28;20058;-72
2022/07/13 09:04:41;;;;;;;0.80;0.70;;;24.60;89.40;;;;;;4988275;28;20402;-72
2022/07/13 09:07:13;;;;;;;1.80;0.70;;;24.60;85.70;;;;;;4989956;28;20044;-72
2022/07/13 09:09:45;;;;;;;2.08;0.70;;;24.70;77.90;;;;;;4965944;28;20062;-72
2022/07/13 09:12:18;;;;;;;1.08;0.98;;;24.90;80.70;;;;;;4971450;28;20402;-72
2022/07/13 09:14:54;;;;;;;0.80;0.80;;;25.00;84.70;;;;;;4970867;28;20565;-72
2022/07/13 09:17:32;;;;;;;3.15;0.70;;;25.20;86.10;;;;;;4990123;28;20034;-72
2022/07/13 09:20:10;;;;;;;3.45;1.00;;;25.30;85.10;;;;;;4990171;28;20066;-72
2022/07/13 09:22:49;;;;;;;1.33;0.60;;;25.50;81.90;;;;;;4990023;28;20404;-72
2022/07/13 09:25:39;;;;;;;0.88;0.77;;;25.60;80.40;;;;;;4982979;28;20121;-72
2022/07/13 09:28:13;;;;;;;1.15;0.70;;;25.70;75.90;;;;;;4986089;28;20042;-72
2022/07/13 09:30:45;;;;;;;3.42;0.90;;;25.90;79.70;;;;;;4988442;28;20113;-72
2022/07/13 09:33:35;;;;;;;1.73;0.85;;;26.10;76.70;;;;;;4969745;28;20051;-72
2022/07/13 09:36:22;;;;;;;3.25;1.05;;;26.30;76.90;;;;;;4988223;28;20047;-72
2022/07/13 09:38:53;;;;;;;2.10;0.82;;;26.40;73.80;;;;;;4989849;28;20053;-72
2022/07/13 09:41:25;;;;;;;1.58;0.80;;;26.60;71.60;;;;;;4972353;28;20422;-72
2022/07/13 09:46:56;;;;;;;1.00;0.88;;;26.60;70.40;;;;;;4987106;28;20295;-73
2022/07/13 09:49:41;;;;;;;1.58;0.80;;;26.60;71.60;;;;;;4989323;28;20045;-72
2022/07/13 09:52:09;;;;;;;4.38;0.90;;;26.60;72.10;;;;;;5005650;23;20053;-69
2022/07/13 09:54:43;;;;;;;1.48;1.10;;;26.80;73.90;;;;;;4979038;28;20124;-69
2022/07/13 09:57:18;;;;;;;2.97;0.93;;;27.10;70.10;;;;;;4971658;28;20714;-69
2022/07/13 09:59:50;;;;;;;2.00;0.80;;;27.20;66.90;;;;;;4974452;28;20047;-69
2022/07/13 10:02:24;;;;;;;2.97;0.90;;;27.30;67.50;;;;;;4985975;28;20041;-69
2022/07/13 10:04:57;;;;;;;2.20;1.05;;;27.40;68.50;;;;;;4990149;28;20062;-68
2022/07/13 10:07:31;;;;;;;2.95;0.82;;;27.60;65.90;;;;;;4990428;28;20061;-69
2022/07/13 10:10:06;;;;;;;2.85;2.05;;;27.50;65.60;;;;;;4974043;28;20045;-68
2022/07/13 10:12:38;;;;;;;9.95;1.42;;;27.60;66.40;;;;;;4992413;28;20045;-68
2022/07/13 10:15:12;;;;;;;2.13;1.60;;;27.70;68.00;;;;;;4990666;28;20042;-69
2022/07/13 10:17:49;;;;;;;2.22;0.80;;;27.80;65.10;;;;;;4992395;28;20124;-69
2022/07/13 10:20:25;;;;;;;2.53;0.90;;;27.70;64.80;;;;;;4992392;28;20053;-69
2022/07/13 10:22:56;;;;;;;4.72;1.10;;;27.70;66.30;;;;;;4989991;28;20038;-68
2022/07/13 10:25:42;;;;;;;2.60;1.02;;;27.80;65.80;;;;;;4975668;28;20038;-69
2022/07/13 10:28:18;;;;;;;1.92;1.15;;;27.90;65.50;;;;;;4991452;28;20050;-69
2022/07/13 10:30:50;;;;;;;3.42;1.30;;;28.10;65.30;;;;;;4996960;28;20051;-68
2022/07/13 10:33:26;;;;;;;1.35;0.80;;;28.10;63.60;;;;;;4990888;28;20070;-69
2022/07/13 10:35:58;;;;;;;3.30;1.20;;;28.20;63.00;;;;;;4993975;28;20034;-68
2022/07/13 10:38:35;;;;;;;4.95;1.60;;;28.40;60.80;;;;;;4994559;28;20034;-68
2022/07/13 10:41:21;;;;;;;1.50;1.10;;;28.60;61.80;;;;;;4998933;28;20074;-69
2022/07/13 10:43:54;;;;;;;2.95;0.70;;;28.70;58.60;;;;;;4973136;28;20038;-68
2022/07/13 10:46:44;;;;;;;;;;;28.80;57.30;;;;;;4999303;28;20125;-70
2022/07/13 10:49:31;;;;;;;3.15;0.90;;;28.80;57.70;;;;;;4990064;28;19960;-69
2022/07/13 10:52:26;;;;;;;1.00;0.82;;;28.90;57.50;;;;;;4995350;28;20137;-69
2022/07/13 10:55:04;;;;;;;0.95;0.80;;;28.90;55.70;;;;;;4991305;28;20050;-69
2022/07/13 10:57:37;;;;;;;1.73;0.80;;;28.80;53.60;;;;;;4995125;28;20081;-69
2022/07/13 11:00:22;;;;;;;0.88;0.77;;;28.70;53.40;;;;;;4995392;28;20466;-69
2022/07/13 11:03:04;;;;;;;1.25;0.70;;;28.80;56.00;;;;;;4985628;28;20042;-69
2022/07/13 11:05:36;;;;;;;2.90;0.95;;;28.70;53.80;;;;;;4975891;28;20043;-69
2022/07/13 11:08:13;;;;;;;2.30;0.88;;;28.80;53.30;;;;;;4999575;28;20414;-69
2022/07/13 11:11:08;;;;;;;3.55;0.80;;;29.00;53.80;;;;;;5000836;28;20502;-69
2022/07/13 11:13:36;;;;;;;2.38;1.20;;;29.30;51.80;;;;;;4992398;28;20146;-69
2022/07/13 11:16:08;;;;;;;2.72;1.20;;;29.50;51.20;;;;;;4994682;28;20129;-69
2022/07/13 11:18:41;;;;;;;1.30;0.83;;;29.50;50.30;;;;;;4979141;28;20512;-68
2022/07/13 11:21:16;;;;;;;2.45;0.70;;;29.60;49.10;;;;;;4995366;28;20286;-69
2022/07/13 11:26:49;;;;;;;2.00;0.63;;;29.90;48.60;;;;;;4988374;28;20049;-69
2022/07/13 11:29:48;;;;;;;1.33;0.80;;;29.90;47.00;;;;;;4999747;28;20121;-69
2022/07/13 11:32:21;;;;;;;1.20;0.80;;;29.80;46.90;;;;;;4996770;28;20050;-69
2022/07/13 11:34:52;;;;;;;;;;;29.80;47.80;;;;;;5009899;28;20042;-69
2022/07/13 11:37:25;;;;;;;0.80;0.60;;;30.00;48.30;;;;;;5014218;28;19925;-69
2022/07/13 11:39:57;;;;;;;1.85;0.60;;;30.10;48.00;;;;;;4997279;28;20449;-69
2022/07/13 11:42:28;;;;;;;1.13;0.95;;;30.10;46.20;;;;;;4992499;28;20121;-68
2022/07/13 11:45:00;;;;;;;1.10;0.70;;;30.10;46.10;;;;;;4992861;28;20030;-68
2022/07/13 11:47:32;;;;;;;1.30;0.80;;;30.10;45.30;;;;;;5003846;28;20106;-68
2022/07/13 11:50:04;;;;;;;1.42;0.80;;;30.20;45.40;;;;;;5007893;28;20128;-68
2022/07/13 11:52:39;;;;;;;5.65;1.58;;;30.20;43.20;;;;;;4992309;28;20405;-68
2022/07/13 11:55:11;;;;;;;1.42;0.80;;;30.20;43.80;;;;;;5013026;28;20063;-68
2022/07/13 11:57:47;;;;;;;1.73;1.10;;;30.10;44.30;;;;;;5001126;28;20038;-68
2022/07/13 12:00:19;;;;;;;2.05;0.70;;;30.10;44.40;;;;;;4989870;28;20116;-69
2022/07/13 12:02:51;;;;;;;1.33;0.85;;;30.10;44.50;;;;;;4995045;28;20061;-68
2022/07/13 12:05:25;;;;;;;1.63;1.08;;;30.30;44.60;;;;;;5000921;28;20056;-68
2022/07/13 12:08:04;;;;;;;1.15;1.02;;;30.50;45.60;;;;;;4991896;28;20041;-68
2022/07/13 12:10:37;;;;;;;3.28;1.17;;;30.50;43.20;;;;;;5001614;28;20040;-69
2022/07/13 12:13:08;;;;;;;3.08;0.90;;;30.70;44.60;;;;;;4984873;28;20042;-69
2022/07/13 12:15:40;;;;;;;1.23;0.70;;;30.80;44.50;;;;;;4997361;28;20537;-69
2022/07/13 12:18:14;;;;;;;0.90;0.70;;;30.70;43.50;;;;;;5002222;28;20321;-68
2022/07/13 12:20:45;;;;;;;2.58;0.85;;;30.60;43.30;;;;;;4991742;28;20039;-70
2022/07/13 12:23:17;;;;;;;2.73;0.77;;;30.60;43.40;;;;;;4992777;28;20042;-69
2022/07/13 12:26:04;;;;;;;2.60;0.85;;;30.60;43.90;;;;;;4981136;28;20038;-68
2022/07/13 12:28:38;;;;;;;4.05;1.70;;;30.70;43.70;;;;;;4995274;28;20044;-69
2022/07/13 12:31:10;;;;;;;1.45;0.77;;;30.90;44.60;;;;;;4993806;28;20042;-68
2022/07/13 12:33:44;;;;;;;1.75;0.75;;;30.90;43.50;;;;;;4990546;28;20038;-68
2022/07/13 12:36:20;;;;;;;1.67;0.90;;;31.10;43.40;;;;;;4994716;28;20166;-70
2022/07/13 12:38:56;;;;;;;2.08;0.95;;;31.20;42.90;;;;;;5006515;28;20402;-68
2022/07/13 12:41:40;;;;;;;3.13;0.80;;;31.10;43.90;;;;;;5000409;28;20044;-70
2022/07/13 12:44:12;;;;;;;1.00;0.80;;;31.30;45.60;;;;;;4995781;28;20046;-68
2022/07/13 12:46:45;;;;;;;1.92;0.85;;;31.60;43.80;;;;;;5006664;28;20049;-67
2022/07/13 12:49:17;;;;;;;2.70;1.05;;;31.70;43.30;;;;;;4976288;28;20058;-68
2022/07/13 12:51:51;;;;;;;1.38;0.90;;;31.70;43.30;;;;;;4998006;28;20062;-69
2022/07/13 12:54:46;;;;;;;0.75;0.75;;;31.90;41.90;;;;;;4977506;28;20442;-69
2022/07/13 12:57:19;;;;;;;1.85;0.85;;;31.70;41.50;;;;;;5009089;28;20088;-68
2022/07/13 13:00:01;;;;;;;3.20;0.98;;;31.70;41.70;;;;;;4986318;28;20108;-68
2022/07/13 13:02:33;;;;;;;2.58;1.00;;;31.60;41.80;;;;;;4994183;28;20125;-71
2022/07/13 13:05:07;;;;;;;0.77;0.77;;;31.60;41.90;;;;;;5000377;28;20041;-69
2022/07/13 13:07:39;;;;;;;1.58;0.88;;;31.70;42.70;;;;;;4999492;28;20069;-69
2022/07/13 13:10:11;;;;;;;0.73;0.60;;;31.70;43.70;;;;;;5008389;28;20042;-69
2022/07/13 13:12:43;;;;;;;4.72;0.80;;;31.90;44.20;;;;;;4997319;28;20051;-68
2022/07/13 13:15:15;;;;;;;0.90;0.70;;;32.10;41.90;;;;;;4996250;28;20072;-68
2022/07/13 13:17:47;;;;;;;0.98;0.80;;;32.20;42.10;;;;;;4999073;28;20093;-69
2022/07/13 13:20:19;;;;;;;2.05;0.85;;;32.20;42.50;;;;;;5005382;28;20048;-69
2022/07/13 13:22:50;;;;;;;4.30;0.70;;;32.40;43.00;;;;;;4996544;28;20486;-68
2022/07/13 13:25:22;;;;;;;1.90;0.80;;;32.20;41.70;;;;;;5008246;28;20482;-68
2022/07/13 13:27:54;;;;;;;0.80;0.70;;;32.30;42.00;;;;;;4992380;28;20042;-69
2022/07/13 13:30:44;;;;;;;4.80;0.88;;;32.40;41.40;;;;;;5001676;28;20042;-68
2022/07/13 13:33:17;;;;;;;1.33;0.90;;;32.40;40.70;;;;;;4986568;28;20051;-68